createdAt,value
2018-07-08T00:01:29.081Z,17.06
2018-07-08T00:03:57.293Z,16.75
2018-07-08T00:06:25.474Z,16.94
2018-07-08T00:08:53.711Z,17.02
2018-07-08T00:11:21.951Z,16.71
2018-07-08T00:13:50.234Z,16.80
2018-07-08T00:16:18.566Z,16.60
2018-07-08T00:18:46.767Z,16.82
2018-07-08T00:21:15.093Z,16.96
2018-07-08T00:23:43.261Z,16.84
2018-07-08T00:26:11.461Z,16.78
2018-07-08T00:28:39.820Z,16.91
2018-07-08T00:31:07.979Z,16.87
2018-07-08T00:33:36.208Z,16.65
2018-07-08T00:36:04.481Z,16.70
2018-07-08T00:38:32.822Z,16.65
2018-07-08T00:41:01.028Z,16.69
2018-07-08T00:43:29.217Z,16.46
2018-07-08T00:45:57.444Z,16.89
2018-07-08T00:48:25.629Z,16.37
2018-07-08T00:50:53.801Z,16.77
2018-07-08T00:53:22.011Z,16.74
2018-07-08T00:55:50.359Z,16.62
2018-07-08T00:58:18.645Z,16.62
2018-07-08T01:00:47.040Z,16.67
2018-07-08T01:03:21.923Z,16.55
2018-07-08T01:05:50.148Z,16.40
2018-07-08T01:08:18.385Z,16.54
2018-07-08T01:10:46.637Z,16.47
2018-07-08T01:13:14.923Z,16.67
2018-07-08T01:15:43.156Z,16.72
2018-07-08T01:18:11.439Z,16.64
2018-07-08T01:20:39.667Z,16.68
2018-07-08T01:23:07.928Z,16.58
2018-07-08T01:25:47.468Z,16.69
2018-07-08T01:28:15.688Z,16.58
2018-07-08T01:30:43.970Z,16.57
2018-07-08T01:33:12.201Z,16.12
2018-07-08T01:35:40.473Z,16.49
2018-07-08T01:38:08.687Z,16.37
2018-07-08T01:40:37.545Z,16.30
2018-07-08T01:43:05.791Z,16.32
2018-07-08T01:45:34.010Z,16.38
2018-07-08T01:48:02.257Z,16.32
2018-07-08T01:50:30.477Z,16.29
2018-07-08T01:52:58.771Z,16.26
2018-07-08T01:55:27.224Z,16.42
2018-07-08T01:57:55.466Z,16.27
2018-07-08T02:00:23.950Z,16.28
2018-07-08T02:02:52.173Z,16.11
2018-07-08T02:05:20.417Z,16.28
2018-07-08T02:07:48.652Z,16.20
2018-07-08T02:10:16.868Z,16.20
2018-07-08T02:12:45.056Z,16.33
2018-07-08T02:15:13.323Z,16.26
2018-07-08T02:17:41.557Z,16.35
2018-07-08T02:20:09.876Z,16.42
2018-07-08T02:22:38.660Z,16.34
2018-07-08T02:25:06.962Z,16.43
2018-07-08T02:27:35.175Z,16.11
2018-07-08T02:30:03.389Z,16.17
2018-07-08T02:32:31.647Z,16.39
2018-07-08T02:35:00.130Z,16.16
2018-07-08T02:37:28.514Z,16.31
2018-07-08T02:39:56.710Z,16.23
2018-07-08T02:42:25.443Z,15.89
2018-07-08T02:44:53.735Z,16.13
2018-07-08T02:47:22.121Z,16.02
2018-07-08T02:49:50.622Z,16.29
2018-07-08T02:52:19.308Z,16.14
2018-07-08T02:54:47.585Z,16.02
2018-07-08T02:57:16.057Z,16.18
2018-07-08T02:59:45.124Z,16.18
2018-07-08T03:02:13.352Z,16.24
2018-07-08T03:04:41.700Z,16.25
2018-07-08T03:07:09.916Z,16.07
2018-07-08T03:09:38.143Z,15.77
2018-07-08T03:12:06.632Z,16.06
2018-07-08T03:14:34.853Z,15.98
2018-07-08T03:17:03.089Z,15.93
2018-07-08T03:19:31.295Z,16.12
2018-07-08T03:21:59.547Z,16.20
2018-07-08T03:24:27.769Z,16.10
2018-07-08T03:26:55.988Z,15.70
2018-07-08T03:29:24.188Z,16.04
2018-07-08T03:31:52.562Z,16.16
2018-07-08T03:34:20.790Z,15.95
2018-07-08T03:36:49.026Z,16.11
2018-07-08T03:39:17.363Z,15.52
2018-07-08T03:41:45.620Z,15.70
2018-07-08T03:44:13.844Z,15.90
2018-07-08T03:46:42.069Z,15.71
2018-07-08T03:49:10.323Z,15.87
2018-07-08T03:51:38.534Z,16.01
2018-07-08T03:54:15.412Z,15.78
2018-07-08T03:56:43.696Z,16.33
2018-07-08T03:59:11.904Z,16.09
2018-07-08T04:01:40.184Z,15.69
2018-07-08T04:04:08.463Z,16.75
2018-07-08T04:06:36.758Z,17.30
2018-07-08T04:09:05.280Z,17.31
2018-07-08T04:11:33.552Z,16.69
2018-07-08T04:14:01.851Z,16.25
2018-07-08T04:16:30.244Z,17.14
2018-07-08T04:18:58.481Z,18.51
2018-07-08T04:21:26.706Z,18.81
2018-07-08T04:23:54.947Z,19.11
2018-07-08T04:26:23.207Z,17.49
2018-07-08T04:28:51.467Z,16.90
2018-07-08T04:31:19.687Z,16.48
2018-07-08T04:33:47.919Z,16.42
2018-07-08T04:36:16.187Z,16.73
2018-07-08T04:38:44.473Z,16.68
2018-07-08T04:41:12.691Z,17.47
2018-07-08T04:43:40.915Z,17.09
2018-07-08T04:46:09.239Z,16.36
2018-07-08T04:48:37.454Z,16.80
2018-07-08T04:51:05.684Z,16.26
2018-07-08T04:53:33.893Z,16.60
2018-07-08T04:56:02.142Z,16.47
2018-07-08T04:58:30.373Z,16.36
2018-07-08T05:00:58.730Z,16.14
2018-07-08T05:03:26.909Z,16.14
2018-07-08T05:05:55.142Z,16.02
2018-07-08T05:08:23.392Z,15.87
2018-07-08T05:10:51.661Z,16.03
2018-07-08T05:13:19.872Z,16.17
2018-07-08T05:15:48.163Z,16.37
2018-07-08T05:18:16.414Z,16.36
2018-07-08T05:20:44.621Z,16.24
2018-07-08T05:23:12.872Z,16.10
2018-07-08T05:25:41.129Z,16.26
2018-07-08T05:28:09.380Z,16.19
2018-07-08T05:30:37.683Z,16.19
2018-07-08T05:33:06.043Z,16.34
2018-07-08T05:35:34.518Z,16.07
2018-07-08T05:38:02.752Z,16.23
2018-07-08T05:40:31.070Z,16.13
2018-07-08T05:42:59.317Z,15.97
2018-07-08T05:45:27.577Z,16.07
2018-07-08T05:47:55.809Z,16.15
2018-07-08T05:50:24.117Z,16.21
2018-07-08T05:52:52.353Z,16.07
2018-07-08T05:55:20.604Z,16.23
2018-07-08T05:57:48.825Z,16.21
2018-07-08T06:00:17.136Z,16.40
2018-07-08T06:02:45.320Z,16.31
2018-07-08T06:05:13.577Z,16.41
2018-07-08T06:07:41.853Z,16.38
2018-07-08T06:10:10.075Z,16.56
2018-07-08T06:12:38.328Z,16.43
2018-07-08T06:15:06.561Z,16.66
2018-07-08T06:17:34.819Z,16.47
2018-07-08T06:20:03.085Z,16.66
2018-07-08T06:22:31.326Z,16.63
2018-07-08T06:24:59.598Z,16.67
2018-07-08T06:27:27.854Z,16.69
2018-07-08T06:29:56.070Z,16.58
2018-07-08T06:32:24.324Z,16.69
2018-07-08T06:34:52.938Z,16.69
2018-07-08T06:37:21.190Z,16.64
2018-07-08T06:39:49.417Z,16.74
2018-07-08T06:42:17.631Z,16.82
2018-07-08T06:44:46.530Z,16.94
2018-07-08T06:47:14.846Z,16.91
2018-07-08T06:49:43.224Z,16.91
2018-07-08T06:52:11.466Z,16.97
2018-07-08T06:54:39.726Z,17.02
2018-07-08T06:57:07.970Z,17.00
2018-07-08T06:59:36.295Z,17.16
2018-07-08T07:02:04.568Z,17.27
2018-07-08T07:04:32.754Z,17.14
2018-07-08T07:07:01.037Z,17.14
2018-07-08T07:09:29.272Z,17.33
2018-07-08T07:11:57.509Z,17.16
2018-07-08T07:14:25.831Z,17.40
2018-07-08T07:16:54.740Z,17.34
2018-07-08T07:19:22.938Z,17.41
2018-07-08T07:21:51.219Z,17.46
2018-07-08T07:24:19.431Z,17.40
2018-07-08T07:26:48.024Z,17.52
2018-07-08T07:29:16.314Z,17.64
2018-07-08T07:31:44.665Z,17.68
2018-07-08T07:34:12.892Z,17.71
2018-07-08T07:36:41.118Z,17.82
2018-07-08T07:39:09.449Z,17.87
2018-07-08T07:41:38.591Z,17.80
2018-07-08T07:44:06.879Z,17.91
2018-07-08T07:46:35.118Z,18.03
2018-07-08T07:49:03.348Z,18.01
2018-07-08T07:51:31.564Z,18.08
2018-07-08T07:53:59.766Z,18.21
2018-07-08T07:56:27.985Z,18.20
2018-07-08T07:58:56.261Z,18.46
2018-07-08T08:01:24.551Z,18.32
2018-07-08T08:03:52.790Z,18.43
2018-07-08T08:06:21.254Z,18.27
2018-07-08T08:08:49.553Z,18.33
2018-07-08T08:11:17.939Z,18.36
2018-07-08T08:13:57.253Z,18.35
2018-07-08T08:16:26.569Z,18.40
2018-07-08T08:18:54.877Z,18.41
2018-07-08T08:21:23.448Z,18.58
2018-07-08T08:23:51.721Z,18.56
2018-07-08T08:26:20.225Z,18.54
2018-07-08T08:28:48.599Z,18.77
2018-07-08T08:31:17.515Z,18.76
2018-07-08T08:33:55.687Z,18.76
2018-07-08T08:36:23.917Z,18.88
2018-07-08T08:38:52.188Z,19.09
2018-07-08T08:41:20.435Z,19.00
2018-07-08T08:43:48.737Z,19.28
2018-07-08T08:46:16.972Z,19.28
2018-07-08T08:48:45.192Z,19.15
2018-07-08T08:51:13.461Z,19.43
2018-07-08T08:53:41.732Z,19.26
2018-07-08T08:56:11.611Z,19.34
2018-07-08T08:58:39.902Z,19.32
2018-07-08T09:01:08.246Z,19.33
2018-07-08T09:03:36.568Z,19.37
2018-07-08T09:06:04.899Z,19.46
2018-07-08T09:08:33.166Z,19.65
2018-07-08T09:11:01.420Z,19.52
2018-07-08T09:13:30.131Z,19.59
2018-07-08T09:15:58.372Z,19.64
2018-07-08T09:18:26.636Z,19.78
2018-07-08T09:20:54.871Z,19.79
2018-07-08T09:23:23.267Z,19.95
2018-07-08T09:25:51.629Z,19.63
2018-07-08T09:28:19.870Z,19.90
2018-07-08T09:30:48.141Z,20.01
2018-07-08T09:33:16.564Z,19.84
2018-07-08T09:35:52.501Z,20.37
2018-07-08T09:38:22.059Z,20.01
2018-07-08T09:40:50.391Z,20.36
2018-07-08T09:43:20.194Z,20.25
2018-07-08T09:45:48.452Z,20.40
2018-07-08T09:48:19.373Z,20.03
2018-07-08T09:50:48.967Z,20.28
2018-07-08T09:53:17.244Z,20.20
2018-07-08T09:55:45.725Z,20.42
2018-07-08T09:58:14.001Z,20.28
2018-07-08T10:00:42.287Z,20.81
2018-07-08T10:03:10.597Z,20.67
2018-07-08T10:05:38.830Z,20.61
2018-07-08T10:08:07.061Z,20.56
2018-07-08T10:10:35.316Z,20.50
2018-07-08T10:13:03.484Z,20.71
2018-07-08T10:15:31.767Z,20.57
2018-07-08T10:17:59.985Z,20.52
2018-07-08T10:20:28.326Z,20.64
2018-07-08T10:22:56.601Z,20.97
2018-07-08T10:25:25.156Z,21.05
2018-07-08T10:28:01.940Z,21.00
2018-07-08T10:30:30.177Z,21.02
2018-07-08T10:32:58.460Z,21.19
2018-07-08T10:35:37.892Z,21.18
2018-07-08T10:38:06.236Z,20.98
2018-07-08T10:40:34.441Z,21.24
2018-07-08T10:43:02.720Z,21.37
2018-07-08T10:45:31.000Z,21.71
2018-07-08T10:47:59.245Z,21.25
2018-07-08T10:50:27.472Z,21.22
2018-07-08T10:52:55.739Z,21.73
2018-07-08T10:55:24.244Z,21.55
2018-07-08T10:57:52.428Z,21.65
2018-07-08T11:00:20.736Z,21.50
2018-07-08T11:02:49.002Z,21.62
2018-07-08T11:05:18.206Z,21.52
2018-07-08T11:07:46.447Z,21.89
2018-07-08T11:10:14.700Z,21.77
2018-07-08T11:12:42.955Z,21.79
2018-07-08T11:15:11.161Z,21.68
2018-07-08T11:17:39.417Z,21.76
2018-07-08T11:20:07.684Z,22.02
2018-07-08T11:22:35.902Z,22.12
2018-07-08T11:25:04.176Z,22.01
2018-07-08T11:27:32.400Z,22.34
2018-07-08T11:30:00.649Z,22.28
2018-07-08T11:32:28.871Z,22.14
2018-07-08T11:34:57.100Z,22.37
2018-07-08T11:37:25.297Z,22.34
2018-07-08T11:39:53.490Z,22.36
2018-07-08T11:42:21.745Z,22.47
2018-07-08T11:44:50.104Z,22.24
2018-07-08T11:47:18.436Z,22.45
2018-07-08T11:49:46.670Z,22.40
2018-07-08T11:52:14.908Z,22.55
2018-07-08T11:54:43.157Z,22.57
2018-07-08T11:57:11.434Z,22.54
2018-07-08T11:59:39.668Z,22.90
2018-07-08T12:02:07.933Z,22.65
2018-07-08T12:04:36.136Z,22.78
2018-07-08T12:07:04.375Z,22.73
2018-07-08T12:09:32.631Z,22.96
2018-07-08T12:12:00.835Z,22.82
2018-07-08T12:14:29.535Z,22.93
2018-07-08T12:16:57.995Z,23.00
2018-07-08T12:19:26.290Z,22.94
2018-07-08T12:21:54.631Z,22.95
2018-07-08T12:24:23.008Z,23.12
2018-07-08T12:26:51.187Z,23.32
2018-07-08T12:29:19.457Z,23.27
2018-07-08T12:31:47.756Z,23.40
2018-07-08T12:34:16.015Z,22.97
2018-07-08T12:36:44.338Z,23.19
2018-07-08T12:39:13.568Z,23.27
2018-07-08T12:41:42.305Z,23.37
2018-07-08T12:44:10.664Z,23.56
2018-07-08T12:46:39.540Z,23.44
2018-07-08T12:49:07.990Z,23.78
2018-07-08T12:51:36.200Z,23.44
2018-07-08T12:54:04.582Z,23.30
2018-07-08T12:56:32.808Z,23.45
2018-07-08T12:59:01.101Z,23.74
2018-07-08T13:01:29.309Z,23.71
2018-07-08T13:03:57.612Z,23.77
2018-07-08T13:06:25.887Z,23.88
2018-07-08T13:08:54.184Z,23.81
2018-07-08T13:11:22.548Z,23.75
2018-07-08T13:13:50.782Z,23.71
2018-07-08T13:16:19.018Z,23.52
2018-07-08T13:18:47.221Z,23.54
2018-07-08T13:21:15.581Z,23.56
2018-07-08T13:23:43.802Z,23.74
2018-07-08T13:26:12.167Z,23.87
2018-07-08T13:28:40.427Z,23.76
2018-07-08T13:31:09.436Z,23.83
2018-07-08T13:33:37.653Z,24.11
2018-07-08T13:36:05.880Z,24.09
2018-07-08T13:38:34.092Z,24.12
2018-07-08T13:41:02.325Z,24.02
2018-07-08T13:43:30.572Z,24.20
2018-07-08T13:45:58.787Z,24.25
2018-07-08T13:48:27.068Z,24.46
2018-07-08T13:50:55.317Z,24.29
2018-07-08T13:53:25.908Z,24.42
2018-07-08T13:58:37.640Z,24.57
2018-07-08T14:01:05.963Z,24.43
2018-07-08T14:03:34.731Z,24.56
2018-07-08T14:06:02.990Z,24.34
2018-07-08T14:08:31.165Z,24.05
2018-07-08T14:10:59.470Z,23.96
2018-07-08T14:13:27.667Z,23.95
2018-07-08T14:15:56.325Z,24.28
2018-07-08T14:18:24.570Z,24.27
2018-07-08T14:20:52.824Z,24.03
2018-07-08T14:23:21.029Z,23.82
2018-07-08T14:25:49.264Z,24.24
2018-07-08T14:28:17.572Z,24.57
2018-07-08T14:30:45.798Z,24.53
2018-07-08T14:33:14.004Z,24.33
2018-07-08T14:35:42.226Z,24.47
2018-07-08T14:38:10.481Z,24.49
2018-07-08T14:40:38.728Z,24.56
2018-07-08T14:43:06.923Z,24.61
2018-07-08T14:45:35.152Z,24.50
2018-07-08T14:48:03.405Z,24.19
2018-07-08T14:50:31.659Z,24.28
2018-07-08T14:52:59.883Z,24.62
2018-07-08T14:55:28.128Z,24.96
2018-07-08T14:57:56.406Z,24.97
2018-07-08T15:00:24.625Z,25.07
2018-07-08T15:02:52.874Z,25.10
2018-07-08T15:05:21.106Z,24.86
2018-07-08T15:07:49.366Z,25.18
2018-07-08T15:10:17.570Z,24.72
2018-07-08T15:12:45.833Z,24.68
2018-07-08T15:15:14.087Z,24.84
2018-07-08T15:17:42.351Z,24.99
2018-07-08T15:20:10.619Z,25.08
2018-07-08T15:22:38.823Z,25.04
2018-07-08T15:25:07.156Z,25.11
2018-07-08T15:27:35.376Z,24.96
2018-07-08T15:30:03.681Z,25.17
2018-07-08T15:32:32.400Z,25.16
2018-07-08T15:35:00.619Z,25.11
2018-07-08T15:37:29.159Z,24.85
2018-07-08T15:39:57.375Z,25.09
2018-07-08T15:42:25.593Z,24.60
2018-07-08T15:44:53.846Z,24.69
2018-07-08T15:47:22.329Z,24.95
2018-07-08T15:49:50.511Z,25.05
2018-07-08T15:52:18.745Z,25.09
2018-07-08T15:54:47.339Z,25.13
2018-07-08T15:57:15.565Z,24.72
2018-07-08T15:59:43.951Z,25.03
2018-07-08T16:02:12.197Z,25.06
2018-07-08T16:04:40.488Z,25.12
2018-07-08T16:07:08.695Z,24.89
2018-07-08T16:09:37.427Z,25.12
2018-07-08T16:12:05.705Z,25.28
2018-07-08T16:14:33.902Z,25.42
2018-07-08T16:17:09.426Z,25.43
2018-07-08T16:19:37.671Z,25.14
2018-07-08T16:22:05.892Z,25.43
2018-07-08T16:24:34.169Z,25.26
2018-07-08T16:27:02.523Z,25.38
2018-07-08T16:29:31.441Z,25.55
2018-07-08T16:32:00.499Z,25.46
2018-07-08T16:34:28.700Z,25.25
2018-07-08T16:36:56.996Z,25.17
2018-07-08T16:39:25.228Z,25.25
2018-07-08T16:41:53.485Z,25.39
2018-07-08T16:44:21.724Z,25.39
2018-07-08T16:46:49.943Z,25.17
2018-07-08T16:49:18.211Z,25.14
2018-07-08T16:51:46.399Z,25.19
2018-07-08T16:54:14.973Z,25.45
2018-07-08T16:56:43.307Z,25.44
2018-07-08T16:59:11.631Z,25.16
2018-07-08T17:01:39.879Z,25.38
2018-07-08T17:04:08.144Z,25.35
2018-07-08T17:06:36.376Z,25.22
2018-07-08T17:09:05.958Z,25.11
2018-07-08T17:11:34.311Z,25.38
2018-07-08T17:14:02.562Z,25.24
2018-07-08T17:16:31.146Z,25.22
2018-07-08T17:18:59.393Z,25.06
2018-07-08T17:21:27.705Z,25.11
2018-07-08T17:23:56.046Z,25.31
2018-07-08T17:26:24.342Z,25.25
2018-07-08T17:28:52.653Z,25.04
2018-07-08T17:31:20.875Z,24.70
2018-07-08T17:33:49.205Z,24.95
2018-07-08T17:36:17.552Z,24.86
2018-07-08T17:38:53.067Z,24.92
2018-07-08T17:41:21.280Z,24.66
2018-07-08T17:43:49.524Z,24.88
2018-07-08T17:46:17.744Z,24.58
2018-07-08T17:48:45.979Z,24.30
2018-07-08T17:51:14.222Z,24.79
2018-07-08T17:53:42.461Z,24.59
2018-07-08T17:56:10.730Z,24.29
2018-07-08T17:58:39.605Z,24.37
2018-07-08T18:01:07.911Z,24.19
2018-07-08T18:03:36.124Z,24.03
2018-07-08T18:06:04.583Z,23.76
2018-07-08T18:08:33.743Z,24.00
2018-07-08T18:11:02.001Z,24.46
2018-07-08T18:13:30.270Z,24.50
2018-07-08T18:15:58.490Z,23.82
2018-07-08T18:18:26.766Z,23.66
2018-07-08T18:20:55.054Z,23.84
2018-07-08T18:23:23.307Z,23.95
2018-07-08T18:25:51.537Z,23.96
2018-07-08T18:28:19.779Z,23.83
2018-07-08T18:30:48.019Z,23.55
2018-07-08T18:33:16.277Z,23.28
2018-07-08T18:35:44.489Z,23.21
2018-07-08T18:38:13.097Z,23.29
2018-07-08T18:40:41.443Z,23.11
2018-07-08T18:43:09.705Z,23.39
2018-07-08T18:45:37.943Z,23.19
2018-07-08T18:48:06.298Z,23.36
2018-07-08T18:50:34.638Z,23.34
2018-07-08T18:53:02.847Z,22.95
2018-07-08T18:55:31.208Z,23.04
2018-07-08T18:57:59.648Z,22.99
2018-07-08T19:00:28.022Z,22.87
2018-07-08T19:02:56.296Z,22.85
2018-07-08T19:05:24.605Z,23.03
2018-07-08T19:07:52.880Z,22.77
2018-07-08T19:10:21.144Z,22.77
2018-07-08T19:12:49.442Z,22.80
2018-07-08T19:15:18.235Z,22.49
2018-07-08T19:17:46.614Z,22.55
2018-07-08T19:20:14.912Z,22.88
2018-07-08T19:22:43.413Z,22.52
2018-07-08T19:25:11.877Z,22.53
2018-07-08T19:27:40.127Z,22.54
2018-07-08T19:30:08.367Z,22.61
2018-07-08T19:32:36.580Z,22.52
2018-07-08T19:35:04.867Z,22.17
2018-07-08T19:37:33.444Z,22.52
2018-07-08T19:40:01.725Z,22.19
2018-07-08T19:42:30.023Z,22.25
2018-07-08T19:44:58.295Z,22.31
2018-07-08T19:47:26.614Z,21.92
2018-07-08T19:49:54.839Z,21.66
2018-07-08T19:52:23.164Z,22.04
2018-07-08T19:54:52.157Z,21.77
2018-07-08T19:57:20.554Z,21.75
2018-07-08T19:59:48.774Z,21.76
2018-07-08T20:02:17.049Z,21.64
2018-07-08T20:04:45.351Z,21.52
2018-07-08T20:07:13.602Z,21.62
2018-07-08T20:09:41.904Z,21.50
2018-07-08T20:12:10.155Z,21.40
2018-07-08T20:14:39.124Z,21.32
2018-07-08T20:17:07.348Z,21.40
2018-07-08T20:19:35.630Z,21.29
2018-07-08T20:22:03.944Z,21.31
2018-07-08T20:24:33.027Z,20.96
2018-07-08T20:27:01.508Z,21.34
2018-07-08T20:29:29.760Z,21.03
2018-07-08T20:31:58.003Z,20.86
2018-07-08T20:34:26.609Z,20.63
2018-07-08T20:36:54.856Z,21.03
2018-07-08T20:39:23.097Z,20.77
2018-07-08T20:41:51.360Z,20.86
2018-07-08T20:44:19.555Z,20.66
2018-07-08T20:46:47.771Z,20.75
2018-07-08T20:49:16.115Z,20.62
2018-07-08T20:51:44.421Z,20.64
2018-07-08T20:54:12.671Z,20.58
2018-07-08T20:56:40.901Z,20.52
2018-07-08T20:59:09.126Z,20.55
2018-07-08T21:01:37.406Z,20.44
2018-07-08T21:04:05.882Z,20.18
2018-07-08T21:06:34.152Z,20.34
2018-07-08T21:09:02.410Z,20.52
2018-07-08T21:11:30.695Z,20.34
2018-07-08T21:13:58.942Z,20.50
2018-07-08T21:16:27.459Z,20.02
2018-07-08T21:18:55.743Z,19.83
2018-07-08T21:21:23.950Z,19.89
2018-07-08T21:23:52.190Z,19.99
2018-07-08T21:26:20.420Z,20.09
2018-07-08T21:28:49.021Z,19.61
2018-07-08T21:31:17.923Z,19.98
2018-07-08T21:33:46.258Z,19.86
2018-07-08T21:36:14.488Z,20.05
2018-07-08T21:38:43.396Z,19.89
2018-07-08T21:41:11.707Z,19.41
2018-07-08T21:43:41.121Z,19.74
2018-07-08T21:46:09.374Z,19.92
2018-07-08T21:48:37.752Z,19.58
2018-07-08T21:51:06.200Z,19.40
2018-07-08T21:53:34.489Z,19.48
2018-07-08T21:56:02.788Z,18.94
2018-07-08T21:58:31.054Z,18.92
2018-07-08T22:01:20.122Z,19.44
2018-07-08T22:03:48.968Z,19.23
2018-07-08T22:06:17.881Z,19.35
2018-07-08T22:08:46.372Z,19.47
2018-07-08T22:11:14.673Z,19.40
2018-07-08T22:13:43.409Z,18.97
2018-07-08T22:16:11.692Z,19.40
2018-07-08T22:18:40.095Z,18.92
2018-07-08T22:21:09.189Z,19.02
2018-07-08T22:23:37.518Z,19.09
2018-07-08T22:26:06.008Z,19.23
2018-07-08T22:28:34.554Z,19.08
2018-07-08T22:31:03.091Z,19.08
2018-07-08T22:33:31.399Z,19.16
2018-07-08T22:35:59.650Z,19.12
2018-07-08T22:38:27.872Z,19.27
2018-07-08T22:40:56.108Z,19.00
2018-07-08T22:43:24.331Z,19.15
2018-07-08T22:45:52.537Z,18.67
2018-07-08T22:48:20.761Z,18.80
2018-07-08T22:50:49.051Z,18.63
2018-07-08T22:53:17.280Z,18.85
2018-07-08T22:55:45.539Z,18.74
2018-07-08T22:58:13.748Z,19.09
2018-07-08T23:00:53.472Z,18.87
2018-07-08T23:03:56.096Z,18.92
2018-07-08T23:06:24.336Z,18.82
2018-07-08T23:08:53.032Z,18.62
2018-07-08T23:11:21.821Z,18.65
2018-07-08T23:13:50.927Z,18.46
2018-07-08T23:16:19.535Z,18.35
2018-07-08T23:18:47.803Z,18.43
2018-07-08T23:21:16.604Z,18.55
2018-07-08T23:23:44.965Z,18.49
2018-07-08T23:26:13.201Z,18.54
2018-07-08T23:28:41.453Z,18.51
2018-07-08T23:31:10.219Z,18.40
2018-07-08T23:33:38.530Z,18.66
2018-07-08T23:36:07.250Z,18.34
2018-07-08T23:38:35.663Z,18.31
2018-07-08T23:41:04.969Z,18.32
2018-07-08T23:43:33.217Z,18.05
2018-07-08T23:46:02.140Z,18.21
2018-07-08T23:48:30.552Z,18.23
2018-07-08T23:50:58.758Z,18.14
2018-07-08T23:53:27.129Z,18.12
2018-07-08T23:55:55.435Z,17.95
2018-07-08T23:58:23.650Z,17.90
